sensor_id;sensor_type;location;lat;lon;timestamp;P1;durP1;ratioP1;P2;durP2;ratioP2
54191;SDS011;40101;53.002;6.488;2023-03-09T00:01:44;14.65;;;10.95;;
54191;SDS011;40101;53.002;6.488;2023-03-09T00:04:15;14.35;;;10.75;;
54191;SDS011;40101;53.002;6.488;2023-03-09T00:06:41;15.63;;;10.93;;
54191;SDS011;40101;53.002;6.488;2023-03-09T00:09:07;13.95;;;10.25;;
54191;SDS011;40101;53.002;6.488;2023-03-09T00:11:33;16.02;;;10.07;;
54191;SDS011;40101;53.002;6.488;2023-03-09T00:13:59;11.52;;;9.00;;
54191;SDS011;40101;53.002;6.488;2023-03-09T00:16:26;13.45;;;9.82;;
54191;SDS011;40101;53.002;6.488;2023-03-09T00:18:54;13.85;;;9.55;;
54191;SDS011;40101;53.002;6.488;2023-03-09T00:21:22;15.55;;;9.52;;
54191;SDS011;40101;53.002;6.488;2023-03-09T00:24:12;13.05;;;9.57;;
54191;SDS011;40101;53.002;6.488;2023-03-09T00:26:48;14.77;;;9.80;;
54191;SDS011;40101;53.002;6.488;2023-03-09T00:29:18;15.68;;;9.73;;
54191;SDS011;40101;53.002;6.488;2023-03-09T00:31:44;14.70;;;10.73;;
54191;SDS011;40101;53.002;6.488;2023-03-09T00:34:11;15.82;;;11.45;;
54191;SDS011;40101;53.002;6.488;2023-03-09T00:36:37;17.67;;;10.02;;
54191;SDS011;40101;53.002;6.488;2023-03-09T00:39:04;16.38;;;12.00;;
54191;SDS011;40101;53.002;6.488;2023-03-09T00:41:30;25.77;;;13.02;;
54191;SDS011;40101;53.002;6.488;2023-03-09T00:43:59;16.85;;;12.00;;
54191;SDS011;40101;53.002;6.488;2023-03-09T00:46:26;18.75;;;12.70;;
54191;SDS011;40101;53.002;6.488;2023-03-09T00:48:53;20.63;;;13.40;;
54191;SDS011;40101;53.002;6.488;2023-03-09T00:51:19;21.45;;;14.13;;
54191;SDS011;40101;53.002;6.488;2023-03-09T00:53:44;19.75;;;14.02;;
54191;SDS011;40101;53.002;6.488;2023-03-09T00:56:17;22.15;;;14.45;;
54191;SDS011;40101;53.002;6.488;2023-03-09T00:58:45;18.93;;;14.17;;
54191;SDS011;40101;53.002;6.488;2023-03-09T01:01:13;23.50;;;14.23;;
54191;SDS011;40101;53.002;6.488;2023-03-09T01:03:40;20.50;;;13.55;;
54191;SDS011;40101;53.002;6.488;2023-03-09T01:06:06;18.90;;;14.25;;
54191;SDS011;40101;53.002;6.488;2023-03-09T01:08:33;22.63;;;13.23;;
54191;SDS011;40101;53.002;6.488;2023-03-09T01:10:59;19.83;;;13.50;;
54191;SDS011;40101;53.002;6.488;2023-03-09T01:13:25;18.63;;;12.48;;
54191;SDS011;40101;53.002;6.488;2023-03-09T01:15:51;18.63;;;12.52;;
54191;SDS011;40101;53.002;6.488;2023-03-09T01:18:17;19.45;;;12.85;;
54191;SDS011;40101;53.002;6.488;2023-03-09T01:20:42;18.33;;;13.10;;
54191;SDS011;40101;53.002;6.488;2023-03-09T01:23:08;20.77;;;13.15;;
54191;SDS011;40101;53.002;6.488;2023-03-09T01:25:34;17.85;;;11.70;;
54191;SDS011;40101;53.002;6.488;2023-03-09T01:28:00;14.82;;;11.57;;
54191;SDS011;40101;53.002;6.488;2023-03-09T01:30:25;15.75;;;11.40;;
54191;SDS011;40101;53.002;6.488;2023-03-09T01:32:51;15.65;;;11.88;;
54191;SDS011;40101;53.002;6.488;2023-03-09T01:35:18;16.20;;;11.25;;
54191;SDS011;40101;53.002;6.488;2023-03-09T01:37:44;18.35;;;11.23;;
54191;SDS011;40101;53.002;6.488;2023-03-09T01:40:10;16.15;;;11.45;;
54191;SDS011;40101;53.002;6.488;2023-03-09T01:42:42;21.45;;;11.55;;
54191;SDS011;40101;53.002;6.488;2023-03-09T01:47:46;15.82;;;11.35;;
54191;SDS011;40101;53.002;6.488;2023-03-09T01:50:13;14.57;;;9.23;;
54191;SDS011;40101;53.002;6.488;2023-03-09T01:52:41;15.50;;;10.70;;
54191;SDS011;40101;53.002;6.488;2023-03-09T01:55:10;14.20;;;10.00;;
54191;SDS011;40101;53.002;6.488;2023-03-09T01:57:42;17.35;;;10.55;;
54191;SDS011;40101;53.002;6.488;2023-03-09T02:00:14;12.48;;;9.98;;
54191;SDS011;40101;53.002;6.488;2023-03-09T02:02:44;13.02;;;9.75;;
54191;SDS011;40101;53.002;6.488;2023-03-09T02:05:14;16.00;;;10.40;;
54191;SDS011;40101;53.002;6.488;2023-03-09T02:07:45;14.95;;;10.23;;
54191;SDS011;40101;53.002;6.488;2023-03-09T02:10:16;15.52;;;10.27;;
54191;SDS011;40101;53.002;6.488;2023-03-09T02:12:49;18.27;;;11.52;;
54191;SDS011;40101;53.002;6.488;2023-03-09T02:15:19;16.23;;;10.15;;
54191;SDS011;40101;53.002;6.488;2023-03-09T02:17:46;13.30;;;9.80;;
54191;SDS011;40101;53.002;6.488;2023-03-09T02:22:41;17.48;;;11.30;;
54191;SDS011;40101;53.002;6.488;2023-03-09T02:28:07;15.80;;;11.55;;
54191;SDS011;40101;53.002;6.488;2023-03-09T02:30:34;16.90;;;11.35;;
54191;SDS011;40101;53.002;6.488;2023-03-09T02:33:08;14.73;;;10.35;;
54191;SDS011;40101;53.002;6.488;2023-03-09T02:35:36;16.73;;;11.55;;
54191;SDS011;40101;53.002;6.488;2023-03-09T02:38:02;15.50;;;11.18;;
54191;SDS011;40101;53.002;6.488;2023-03-09T02:40:29;13.57;;;10.32;;
54191;SDS011;40101;53.002;6.488;2023-03-09T02:42:59;14.77;;;10.40;;
54191;SDS011;40101;53.002;6.488;2023-03-09T02:45:27;14.95;;;10.57;;
54191;SDS011;40101;53.002;6.488;2023-03-09T02:47:54;16.90;;;11.48;;
54191;SDS011;40101;53.002;6.488;2023-03-09T02:50:21;14.93;;;11.02;;
54191;SDS011;40101;53.002;6.488;2023-03-09T02:52:48;14.63;;;10.23;;
54191;SDS011;40101;53.002;6.488;2023-03-09T02:55:13;17.20;;;11.38;;
54191;SDS011;40101;53.002;6.488;2023-03-09T02:57:39;13.75;;;10.68;;
54191;SDS011;40101;53.002;6.488;2023-03-09T03:00:08;16.63;;;12.45;;
54191;SDS011;40101;53.002;6.488;2023-03-09T03:02:37;14.30;;;10.07;;
54191;SDS011;40101;53.002;6.488;2023-03-09T03:05:03;16.73;;;10.50;;
54191;SDS011;40101;53.002;6.488;2023-03-09T03:07:30;13.68;;;10.02;;
54191;SDS011;40101;53.002;6.488;2023-03-09T03:09:55;15.40;;;10.27;;
54191;SDS011;40101;53.002;6.488;2023-03-09T03:12:21;15.63;;;10.60;;
54191;SDS011;40101;53.002;6.488;2023-03-09T03:14:47;16.25;;;10.45;;
54191;SDS011;40101;53.002;6.488;2023-03-09T03:17:13;16.35;;;11.02;;
54191;SDS011;40101;53.002;6.488;2023-03-09T03:19:38;15.77;;;11.05;;
54191;SDS011;40101;53.002;6.488;2023-03-09T03:22:04;14.05;;;10.63;;
54191;SDS011;40101;53.002;6.488;2023-03-09T03:24:30;16.10;;;11.20;;
54191;SDS011;40101;53.002;6.488;2023-03-09T03:27:01;19.15;;;11.70;;
54191;SDS011;40101;53.002;6.488;2023-03-09T03:29:26;15.52;;;11.40;;
54191;SDS011;40101;53.002;6.488;2023-03-09T03:31:52;18.20;;;12.43;;
54191;SDS011;40101;53.002;6.488;2023-03-09T03:34:17;18.80;;;11.95;;
54191;SDS011;40101;53.002;6.488;2023-03-09T03:36:43;17.40;;;11.60;;
54191;SDS011;40101;53.002;6.488;2023-03-09T03:39:09;18.05;;;13.55;;
54191;SDS011;40101;53.002;6.488;2023-03-09T03:41:34;20.98;;;13.60;;
54191;SDS011;40101;53.002;6.488;2023-03-09T03:44:00;18.40;;;12.52;;
54191;SDS011;40101;53.002;6.488;2023-03-09T03:46:26;19.25;;;13.60;;
54191;SDS011;40101;53.002;6.488;2023-03-09T03:48:51;19.73;;;13.30;;
54191;SDS011;40101;53.002;6.488;2023-03-09T03:51:17;21.98;;;13.73;;
54191;SDS011;40101;53.002;6.488;2023-03-09T03:53:43;21.27;;;13.80;;
54191;SDS011;40101;53.002;6.488;2023-03-09T03:56:09;23.75;;;13.90;;
54191;SDS011;40101;53.002;6.488;2023-03-09T03:58:34;20.83;;;14.10;;
54191;SDS011;40101;53.002;6.488;2023-03-09T04:01:00;19.08;;;14.07;;
54191;SDS011;40101;53.002;6.488;2023-03-09T04:03:26;20.83;;;13.48;;
54191;SDS011;40101;53.002;6.488;2023-03-09T04:05:51;21.00;;;14.68;;
54191;SDS011;40101;53.002;6.488;2023-03-09T04:08:17;21.83;;;13.80;;
54191;SDS011;40101;53.002;6.488;2023-03-09T04:10:42;22.60;;;14.70;;
54191;SDS011;40101;53.002;6.488;2023-03-09T04:13:08;23.00;;;15.05;;
54191;SDS011;40101;53.002;6.488;2023-03-09T04:15:34;20.90;;;15.32;;
54191;SDS011;40101;53.002;6.488;2023-03-09T04:18:00;20.70;;;14.07;;
54191;SDS011;40101;53.002;6.488;2023-03-09T04:20:26;21.92;;;15.23;;
54191;SDS011;40101;53.002;6.488;2023-03-09T04:22:51;19.98;;;14.13;;
54191;SDS011;40101;53.002;6.488;2023-03-09T04:25:17;20.50;;;13.63;;
54191;SDS011;40101;53.002;6.488;2023-03-09T04:27:43;19.27;;;14.23;;
54191;SDS011;40101;53.002;6.488;2023-03-09T04:30:09;21.65;;;14.18;;
54191;SDS011;40101;53.002;6.488;2023-03-09T04:32:36;19.88;;;14.38;;
54191;SDS011;40101;53.002;6.488;2023-03-09T04:35:02;21.13;;;13.98;;
54191;SDS011;40101;53.002;6.488;2023-03-09T04:37:29;20.88;;;14.90;;
54191;SDS011;40101;53.002;6.488;2023-03-09T04:39:55;21.73;;;14.68;;
54191;SDS011;40101;53.002;6.488;2023-03-09T04:42:20;20.80;;;14.52;;
54191;SDS011;40101;53.002;6.488;2023-03-09T04:44:46;23.08;;;15.38;;
54191;SDS011;40101;53.002;6.488;2023-03-09T04:47:12;23.20;;;15.55;;
54191;SDS011;40101;53.002;6.488;2023-03-09T04:49:38;23.10;;;15.38;;
54191;SDS011;40101;53.002;6.488;2023-03-09T04:52:05;23.00;;;15.57;;
54191;SDS011;40101;53.002;6.488;2023-03-09T04:54:30;24.42;;;16.20;;
54191;SDS011;40101;53.002;6.488;2023-03-09T04:56:56;26.63;;;17.73;;
54191;SDS011;40101;53.002;6.488;2023-03-09T04:59:22;25.77;;;16.95;;
54191;SDS011;40101;53.002;6.488;2023-03-09T05:01:47;26.00;;;16.83;;
54191;SDS011;40101;53.002;6.488;2023-03-09T05:04:13;27.15;;;17.75;;
54191;SDS011;40101;53.002;6.488;2023-03-09T05:06:39;27.00;;;18.17;;
54191;SDS011;40101;53.002;6.488;2023-03-09T05:09:04;23.45;;;16.42;;
54191;SDS011;40101;53.002;6.488;2023-03-09T05:11:31;28.23;;;17.80;;
54191;SDS011;40101;53.002;6.488;2023-03-09T05:13:57;26.75;;;17.38;;
54191;SDS011;40101;53.002;6.488;2023-03-09T05:16:22;30.00;;;18.65;;
54191;SDS011;40101;53.002;6.488;2023-03-09T05:18:48;30.70;;;17.63;;
54191;SDS011;40101;53.002;6.488;2023-03-09T05:21:14;27.48;;;18.70;;
54191;SDS011;40101;53.002;6.488;2023-03-09T05:23:40;31.45;;;17.88;;
54191;SDS011;40101;53.002;6.488;2023-03-09T05:26:06;28.67;;;18.98;;
54191;SDS011;40101;53.002;6.488;2023-03-09T05:28:36;30.25;;;19.38;;
54191;SDS011;40101;53.002;6.488;2023-03-09T05:31:06;30.08;;;19.08;;
54191;SDS011;40101;53.002;6.488;2023-03-09T05:33:33;33.05;;;19.35;;
54191;SDS011;40101;53.002;6.488;2023-03-09T05:35:59;28.33;;;17.35;;
54191;SDS011;40101;53.002;6.488;2023-03-09T05:38:25;30.75;;;21.27;;
54191;SDS011;40101;53.002;6.488;2023-03-09T05:40:50;28.17;;;18.23;;
54191;SDS011;40101;53.002;6.488;2023-03-09T05:43:16;24.98;;;16.25;;
54191;SDS011;40101;53.002;6.488;2023-03-09T05:45:42;29.95;;;18.27;;
54191;SDS011;40101;53.002;6.488;2023-03-09T05:48:07;28.05;;;18.30;;
54191;SDS011;40101;53.002;6.488;2023-03-09T05:50:34;24.90;;;15.90;;
54191;SDS011;40101;53.002;6.488;2023-03-09T05:53:01;23.45;;;16.08;;
54191;SDS011;40101;53.002;6.488;2023-03-09T05:55:27;23.17;;;15.15;;
54191;SDS011;40101;53.002;6.488;2023-03-09T05:57:52;25.65;;;15.85;;
54191;SDS011;40101;53.002;6.488;2023-03-09T06:00:18;25.15;;;16.05;;
54191;SDS011;40101;53.002;6.488;2023-03-09T06:02:44;22.52;;;15.02;;
54191;SDS011;40101;53.002;6.488;2023-03-09T06:05:09;18.33;;;13.18;;
54191;SDS011;40101;53.002;6.488;2023-03-09T06:07:35;22.38;;;14.60;;
54191;SDS011;40101;53.002;6.488;2023-03-09T06:10:01;25.55;;;14.98;;
54191;SDS011;40101;53.002;6.488;2023-03-09T06:12:27;23.25;;;13.70;;
54191;SDS011;40101;53.002;6.488;2023-03-09T06:14:52;21.25;;;13.80;;
54191;SDS011;40101;53.002;6.488;2023-03-09T06:17:18;24.13;;;14.32;;
54191;SDS011;40101;53.002;6.488;2023-03-09T06:19:44;20.50;;;13.52;;
54191;SDS011;40101;53.002;6.488;2023-03-09T06:22:10;19.77;;;13.80;;
54191;SDS011;40101;53.002;6.488;2023-03-09T06:24:36;27.23;;;15.60;;
54191;SDS011;40101;53.002;6.488;2023-03-09T06:27:01;22.70;;;14.02;;
54191;SDS011;40101;53.002;6.488;2023-03-09T06:29:28;19.70;;;13.38;;
54191;SDS011;40101;53.002;6.488;2023-03-09T06:31:54;26.42;;;14.88;;
54191;SDS011;40101;53.002;6.488;2023-03-09T06:34:20;21.02;;;13.90;;
54191;SDS011;40101;53.002;6.488;2023-03-09T06:36:46;23.75;;;15.00;;
54191;SDS011;40101;53.002;6.488;2023-03-09T06:39:13;20.70;;;13.45;;
54191;SDS011;40101;53.002;6.488;2023-03-09T06:41:38;21.58;;;12.85;;
54191;SDS011;40101;53.002;6.488;2023-03-09T06:44:04;18.35;;;12.82;;
54191;SDS011;40101;53.002;6.488;2023-03-09T06:46:30;20.42;;;14.43;;
54191;SDS011;40101;53.002;6.488;2023-03-09T06:48:56;23.58;;;14.18;;
54191;SDS011;40101;53.002;6.488;2023-03-09T06:51:21;18.30;;;12.48;;
54191;SDS011;40101;53.002;6.488;2023-03-09T06:53:47;21.58;;;14.90;;
54191;SDS011;40101;53.002;6.488;2023-03-09T06:56:13;20.13;;;14.18;;
54191;SDS011;40101;53.002;6.488;2023-03-09T06:58:39;20.38;;;12.20;;
54191;SDS011;40101;53.002;6.488;2023-03-09T07:01:05;22.50;;;14.38;;
54191;SDS011;40101;53.002;6.488;2023-03-09T07:03:32;22.70;;;12.70;;
54191;SDS011;40101;53.002;6.488;2023-03-09T07:05:58;24.88;;;16.13;;
54191;SDS011;40101;53.002;6.488;2023-03-09T07:08:23;20.88;;;13.32;;
54191;SDS011;40101;53.002;6.488;2023-03-09T07:10:49;19.38;;;13.45;;
54191;SDS011;40101;53.002;6.488;2023-03-09T07:13:15;22.85;;;14.75;;
54191;SDS011;40101;53.002;6.488;2023-03-09T07:15:41;20.35;;;13.05;;
54191;SDS011;40101;53.002;6.488;2023-03-09T07:18:07;19.83;;;13.45;;
54191;SDS011;40101;53.002;6.488;2023-03-09T07:20:33;20.23;;;13.23;;
54191;SDS011;40101;53.002;6.488;2023-03-09T07:22:58;23.63;;;15.25;;
54191;SDS011;40101;53.002;6.488;2023-03-09T07:25:24;19.38;;;13.57;;
54191;SDS011;40101;53.002;6.488;2023-03-09T07:27:50;20.00;;;14.05;;
54191;SDS011;40101;53.002;6.488;2023-03-09T07:30:15;20.48;;;14.02;;
54191;SDS011;40101;53.002;6.488;2023-03-09T07:32:41;22.15;;;15.27;;
54191;SDS011;40101;53.002;6.488;2023-03-09T07:35:07;25.33;;;15.55;;
54191;SDS011;40101;53.002;6.488;2023-03-09T07:37:33;21.73;;;14.00;;
54191;SDS011;40101;53.002;6.488;2023-03-09T07:39:59;19.10;;;14.55;;
54191;SDS011;40101;53.002;6.488;2023-03-09T07:42:25;22.27;;;14.95;;
54191;SDS011;40101;53.002;6.488;2023-03-09T07:44:50;20.85;;;13.65;;
54191;SDS011;40101;53.002;6.488;2023-03-09T07:47:16;22.45;;;13.60;;
54191;SDS011;40101;53.002;6.488;2023-03-09T07:49:42;18.08;;;12.75;;
54191;SDS011;40101;53.002;6.488;2023-03-09T07:52:08;20.52;;;13.38;;
54191;SDS011;40101;53.002;6.488;2023-03-09T07:54:34;20.02;;;13.60;;
54191;SDS011;40101;53.002;6.488;2023-03-09T07:57:00;19.38;;;12.63;;
54191;SDS011;40101;53.002;6.488;2023-03-09T07:59:26;17.85;;;12.82;;
54191;SDS011;40101;53.002;6.488;2023-03-09T08:01:51;22.60;;;15.13;;
54191;SDS011;40101;53.002;6.488;2023-03-09T08:04:17;17.27;;;13.32;;
54191;SDS011;40101;53.002;6.488;2023-03-09T08:06:43;17.70;;;13.18;;
54191;SDS011;40101;53.002;6.488;2023-03-09T08:09:13;20.48;;;14.60;;
54191;SDS011;40101;53.002;6.488;2023-03-09T08:11:40;22.92;;;13.55;;
54191;SDS011;40101;53.002;6.488;2023-03-09T08:14:08;22.10;;;15.93;;
54191;SDS011;40101;53.002;6.488;2023-03-09T08:16:33;29.65;;;15.45;;
54191;SDS011;40101;53.002;6.488;2023-03-09T08:18:59;22.40;;;16.13;;
54191;SDS011;40101;53.002;6.488;2023-03-09T08:21:25;20.42;;;14.05;;
54191;SDS011;40101;53.002;6.488;2023-03-09T08:23:50;24.13;;;15.68;;
54191;SDS011;40101;53.002;6.488;2023-03-09T08:26:16;23.23;;;16.80;;
54191;SDS011;40101;53.002;6.488;2023-03-09T08:28:43;23.23;;;15.65;;
54191;SDS011;40101;53.002;6.488;2023-03-09T08:31:10;24.02;;;16.40;;
54191;SDS011;40101;53.002;6.488;2023-03-09T08:33:37;23.50;;;17.25;;
54191;SDS011;40101;53.002;6.488;2023-03-09T08:36:10;23.30;;;16.08;;
54191;SDS011;40101;53.002;6.488;2023-03-09T08:38:41;24.55;;;16.02;;
54191;SDS011;40101;53.002;6.488;2023-03-09T08:41:08;26.25;;;16.27;;
54191;SDS011;40101;53.002;6.488;2023-03-09T08:43:34;23.80;;;17.42;;
54191;SDS011;40101;53.002;6.488;2023-03-09T08:45:59;24.92;;;15.73;;
54191;SDS011;40101;53.002;6.488;2023-03-09T08:48:25;23.23;;;16.73;;
54191;SDS011;40101;53.002;6.488;2023-03-09T08:50:51;22.98;;;16.13;;
54191;SDS011;40101;53.002;6.488;2023-03-09T08:53:16;24.23;;;16.85;;
54191;SDS011;40101;53.002;6.488;2023-03-09T08:55:43;19.83;;;14.75;;
54191;SDS011;40101;53.002;6.488;2023-03-09T08:58:09;20.70;;;15.02;;
54191;SDS011;40101;53.002;6.488;2023-03-09T09:00:34;21.70;;;15.25;;
54191;SDS011;40101;53.002;6.488;2023-03-09T09:03:00;46.25;;;17.17;;
54191;SDS011;40101;53.002;6.488;2023-03-09T09:05:26;19.70;;;14.35;;
54191;SDS011;40101;53.002;6.488;2023-03-09T09:07:51;24.33;;;15.00;;
54191;SDS011;40101;53.002;6.488;2023-03-09T09:10:17;21.20;;;14.98;;
54191;SDS011;40101;53.002;6.488;2023-03-09T09:12:43;18.92;;;13.13;;
54191;SDS011;40101;53.002;6.488;2023-03-09T09:15:09;20.02;;;14.00;;
54191;SDS011;40101;53.002;6.488;2023-03-09T09:17:36;23.05;;;13.82;;
54191;SDS011;40101;53.002;6.488;2023-03-09T09:20:03;26.33;;;15.52;;
54191;SDS011;40101;53.002;6.488;2023-03-09T09:22:29;42.40;;;16.73;;
54191;SDS011;40101;53.002;6.488;2023-03-09T09:24:55;20.38;;;13.30;;
54191;SDS011;40101;53.002;6.488;2023-03-09T09:27:20;17.77;;;13.23;;
54191;SDS011;40101;53.002;6.488;2023-03-09T09:29:46;16.73;;;12.70;;
54191;SDS011;40101;53.002;6.488;2023-03-09T09:32:12;18.55;;;12.60;;
54191;SDS011;40101;53.002;6.488;2023-03-09T09:34:38;17.67;;;12.15;;
54191;SDS011;40101;53.002;6.488;2023-03-09T09:37:03;17.40;;;13.38;;
54191;SDS011;40101;53.002;6.488;2023-03-09T09:39:32;14.80;;;11.60;;
54191;SDS011;40101;53.002;6.488;2023-03-09T09:42:00;15.20;;;11.75;;
54191;SDS011;40101;53.002;6.488;2023-03-09T09:44:43;20.33;;;11.38;;
54191;SDS011;40101;53.002;6.488;2023-03-09T09:47:13;14.82;;;11.25;;
54191;SDS011;40101;53.002;6.488;2023-03-09T09:49:44;14.48;;;10.63;;
54191;SDS011;40101;53.002;6.488;2023-03-09T09:52:18;13.73;;;10.95;;
54191;SDS011;40101;53.002;6.488;2023-03-09T09:58:32;12.90;;;9.73;;
54191;SDS011;40101;53.002;6.488;2023-03-09T10:00:56;13.02;;;9.38;;
54191;SDS011;40101;53.002;6.488;2023-03-09T10:03:26;16.67;;;9.95;;
54191;SDS011;40101;53.002;6.488;2023-03-09T10:05:59;21.65;;;10.02;;
54191;SDS011;40101;53.002;6.488;2023-03-09T10:08:38;11.27;;;9.25;;
54191;SDS011;40101;53.002;6.488;2023-03-09T10:13:55;13.40;;;9.80;;
54191;SDS011;40101;53.002;6.488;2023-03-09T10:16:26;12.05;;;9.52;;
54191;SDS011;40101;53.002;6.488;2023-03-09T10:18:56;11.55;;;9.18;;
54191;SDS011;40101;53.002;6.488;2023-03-09T10:24:00;10.65;;;8.23;;
54191;SDS011;40101;53.002;6.488;2023-03-09T10:26:50;14.65;;;9.10;;
54191;SDS011;40101;53.002;6.488;2023-03-09T10:32:13;9.50;;;7.75;;
54191;SDS011;40101;53.002;6.488;2023-03-09T10:35:06;11.63;;;8.35;;
54191;SDS011;40101;53.002;6.488;2023-03-09T10:37:33;9.85;;;8.35;;
54191;SDS011;40101;53.002;6.488;2023-03-09T10:40:06;17.25;;;8.52;;
54191;SDS011;40101;53.002;6.488;2023-03-09T10:42:39;9.05;;;7.07;;
54191;SDS011;40101;53.002;6.488;2023-03-09T10:48:23;11.90;;;7.43;;
54191;SDS011;40101;53.002;6.488;2023-03-09T10:50:30;10.18;;;8.18;;
54191;SDS011;40101;53.002;6.488;2023-03-09T10:52:58;14.85;;;8.68;;
54191;SDS011;40101;53.002;6.488;2023-03-09T10:56:04;10.43;;;8.02;;
54191;SDS011;40101;53.002;6.488;2023-03-09T10:58:30;17.02;;;9.18;;
54191;SDS011;40101;53.002;6.488;2023-03-09T11:03:40;10.80;;;7.43;;
54191;SDS011;40101;53.002;6.488;2023-03-09T11:06:08;14.73;;;8.55;;
54191;SDS011;40101;53.002;6.488;2023-03-09T11:08:37;12.38;;;8.25;;
54191;SDS011;40101;53.002;6.488;2023-03-09T11:11:06;10.55;;;8.20;;
54191;SDS011;40101;53.002;6.488;2023-03-09T11:13:41;11.57;;;7.47;;
54191;SDS011;40101;53.002;6.488;2023-03-09T11:16:22;12.13;;;8.40;;
54191;SDS011;40101;53.002;6.488;2023-03-09T11:19:03;8.95;;;7.45;;
54191;SDS011;40101;53.002;6.488;2023-03-09T11:21:43;11.60;;;9.35;;
54191;SDS011;40101;53.002;6.488;2023-03-09T11:24:17;11.07;;;7.40;;
54191;SDS011;40101;53.002;6.488;2023-03-09T11:26:48;10.90;;;8.50;;
54191;SDS011;40101;53.002;6.488;2023-03-09T11:32:36;10.32;;;8.27;;
54191;SDS011;40101;53.002;6.488;2023-03-09T11:35:02;9.00;;;7.47;;
54191;SDS011;40101;53.002;6.488;2023-03-09T11:37:34;10.20;;;8.32;;
54191;SDS011;40101;53.002;6.488;2023-03-09T11:43:06;10.75;;;8.10;;
54191;SDS011;40101;53.002;6.488;2023-03-09T11:45:32;10.60;;;7.60;;
54191;SDS011;40101;53.002;6.488;2023-03-09T11:48:08;10.25;;;7.45;;
54191;SDS011;40101;53.002;6.488;2023-03-09T11:51:00;10.77;;;8.10;;
54191;SDS011;40101;53.002;6.488;2023-03-09T11:53:40;12.80;;;8.82;;
54191;SDS011;40101;53.002;6.488;2023-03-09T11:59:05;12.50;;;9.00;;
54191;SDS011;40101;53.002;6.488;2023-03-09T12:04:15;10.15;;;8.05;;
54191;SDS011;40101;53.002;6.488;2023-03-09T12:06:49;13.45;;;8.68;;
54191;SDS011;40101;53.002;6.488;2023-03-09T12:09:25;13.60;;;9.82;;
54191;SDS011;40101;53.002;6.488;2023-03-09T12:11:56;13.93;;;9.90;;
54191;SDS011;40101;53.002;6.488;2023-03-09T12:14:42;10.43;;;8.68;;
54191;SDS011;40101;53.002;6.488;2023-03-09T12:17:16;10.27;;;8.50;;
54191;SDS011;40101;53.002;6.488;2023-03-09T12:19:46;12.48;;;8.98;;
54191;SDS011;40101;53.002;6.488;2023-03-09T12:22:20;12.00;;;9.05;;
54191;SDS011;40101;53.002;6.488;2023-03-09T12:25:00;14.43;;;10.52;;
54191;SDS011;40101;53.002;6.488;2023-03-09T12:27:28;12.45;;;9.30;;
54191;SDS011;40101;53.002;6.488;2023-03-09T12:35:56;11.52;;;9.68;;
54191;SDS011;40101;53.002;6.488;2023-03-09T12:42:55;12.98;;;9.32;;
54191;SDS011;40101;53.002;6.488;2023-03-09T12:53:17;13.65;;;10.50;;
54191;SDS011;40101;53.002;6.488;2023-03-09T13:03:50;14.27;;;11.23;;
54191;SDS011;40101;53.002;6.488;2023-03-09T13:11:40;15.68;;;11.63;;
54191;SDS011;40101;53.002;6.488;2023-03-09T13:14:12;14.20;;;11.25;;
54191;SDS011;40101;53.002;6.488;2023-03-09T13:24:22;15.93;;;12.02;;
54191;SDS011;40101;53.002;6.488;2023-03-09T13:26:56;14.20;;;11.00;;
54191;SDS011;40101;53.002;6.488;2023-03-09T13:29:37;16.45;;;11.63;;
54191;SDS011;40101;53.002;6.488;2023-03-09T13:32:34;17.27;;;12.50;;
54191;SDS011;40101;53.002;6.488;2023-03-09T13:35:16;15.65;;;12.02;;
54191;SDS011;40101;53.002;6.488;2023-03-09T13:37:44;15.65;;;11.77;;
54191;SDS011;40101;53.002;6.488;2023-03-09T13:42:51;19.83;;;13.70;;
54191;SDS011;40101;53.002;6.488;2023-03-09T13:45:25;16.85;;;13.00;;
54191;SDS011;40101;53.002;6.488;2023-03-09T13:50:21;17.15;;;12.77;;
54191;SDS011;40101;53.002;6.488;2023-03-09T13:57:52;16.90;;;12.93;;
54191;SDS011;40101;53.002;6.488;2023-03-09T14:00:20;14.35;;;11.65;;
54191;SDS011;40101;53.002;6.488;2023-03-09T14:02:54;17.25;;;13.13;;
54191;SDS011;40101;53.002;6.488;2023-03-09T14:05:21;17.95;;;12.50;;
54191;SDS011;40101;53.002;6.488;2023-03-09T14:07:53;19.02;;;14.25;;
54191;SDS011;40101;53.002;6.488;2023-03-09T14:10:27;16.48;;;12.98;;
54191;SDS011;40101;53.002;6.488;2023-03-09T14:13:04;18.50;;;14.30;;
54191;SDS011;40101;53.002;6.488;2023-03-09T14:15:37;17.25;;;13.65;;
54191;SDS011;40101;53.002;6.488;2023-03-09T14:18:03;19.50;;;14.38;;
54191;SDS011;40101;53.002;6.488;2023-03-09T14:20:36;17.70;;;13.90;;
54191;SDS011;40101;53.002;6.488;2023-03-09T14:26:03;19.23;;;14.27;;
54191;SDS011;40101;53.002;6.488;2023-03-09T14:28:30;22.63;;;14.25;;
54191;SDS011;40101;53.002;6.488;2023-03-09T14:34:03;23.05;;;15.23;;
54191;SDS011;40101;53.002;6.488;2023-03-09T14:36:50;21.02;;;16.30;;
54191;SDS011;40101;53.002;6.488;2023-03-09T14:44:33;22.15;;;16.42;;
54191;SDS011;40101;53.002;6.488;2023-03-09T14:47:00;21.10;;;15.85;;
54191;SDS011;40101;53.002;6.488;2023-03-09T14:49:26;24.45;;;16.98;;
54191;SDS011;40101;53.002;6.488;2023-03-09T14:51:52;25.45;;;17.58;;
54191;SDS011;40101;53.002;6.488;2023-03-09T14:54:17;25.17;;;16.80;;
54191;SDS011;40101;53.002;6.488;2023-03-09T14:56:44;23.02;;;16.50;;
54191;SDS011;40101;53.002;6.488;2023-03-09T15:01:40;20.85;;;15.35;;
54191;SDS011;40101;53.002;6.488;2023-03-09T15:04:17;24.05;;;17.40;;
54191;SDS011;40101;53.002;6.488;2023-03-09T15:06:44;24.73;;;17.08;;
54191;SDS011;40101;53.002;6.488;2023-03-09T15:09:10;25.70;;;17.30;;
54191;SDS011;40101;53.002;6.488;2023-03-09T15:11:37;25.77;;;17.38;;
54191;SDS011;40101;53.002;6.488;2023-03-09T15:14:10;26.30;;;18.95;;
54191;SDS011;40101;53.002;6.488;2023-03-09T15:16:58;24.98;;;18.13;;
54191;SDS011;40101;53.002;6.488;2023-03-09T15:19:24;26.80;;;18.70;;
54191;SDS011;40101;53.002;6.488;2023-03-09T15:21:54;30.17;;;19.25;;
54191;SDS011;40101;53.002;6.488;2023-03-09T15:24:23;26.77;;;18.45;;
54191;SDS011;40101;53.002;6.488;2023-03-09T15:26:50;29.67;;;18.85;;
54191;SDS011;40101;53.002;6.488;2023-03-09T15:29:17;27.45;;;17.95;;
54191;SDS011;40101;53.002;6.488;2023-03-09T15:31:43;27.92;;;19.23;;
54191;SDS011;40101;53.002;6.488;2023-03-09T15:34:09;28.83;;;19.85;;
54191;SDS011;40101;53.002;6.488;2023-03-09T15:36:35;29.27;;;19.00;;
54191;SDS011;40101;53.002;6.488;2023-03-09T15:39:00;28.08;;;18.52;;
54191;SDS011;40101;53.002;6.488;2023-03-09T15:41:26;31.70;;;20.00;;
54191;SDS011;40101;53.002;6.488;2023-03-09T15:43:52;29.25;;;19.55;;
54191;SDS011;40101;53.002;6.488;2023-03-09T15:46:18;27.25;;;19.27;;
54191;SDS011;40101;53.002;6.488;2023-03-09T15:48:44;27.20;;;18.60;;
54191;SDS011;40101;53.002;6.488;2023-03-09T15:51:10;31.00;;;19.05;;
54191;SDS011;40101;53.002;6.488;2023-03-09T15:53:35;31.10;;;21.20;;
54191;SDS011;40101;53.002;6.488;2023-03-09T15:56:03;30.42;;;19.90;;
54191;SDS011;40101;53.002;6.488;2023-03-09T15:58:33;33.00;;;19.10;;
54191;SDS011;40101;53.002;6.488;2023-03-09T16:01:07;32.22;;;20.52;;
54191;SDS011;40101;53.002;6.488;2023-03-09T16:03:38;29.85;;;19.70;;
54191;SDS011;40101;53.002;6.488;2023-03-09T16:06:04;29.48;;;19.42;;
54191;SDS011;40101;53.002;6.488;2023-03-09T16:08:31;28.27;;;19.25;;
54191;SDS011;40101;53.002;6.488;2023-03-09T16:10:56;26.60;;;18.20;;